This is the latest recevied weather packets stored in our database for station/object LU1HKO-13. If no packets are shown the sender has not sent any weather packets the latest 10 day(s).
| Time | Temp. | Humidity | Pressure | Rain* | Wind** | Luminosity | Snow |
|---|---|---|---|---|---|---|---|
| 1777538495 | 10.56° C | 75% | 1016.4 hPa | 0 mm | - | - | - |
| 1777537250 | 10.56° C | 75% | 1016.7 hPa | 0 mm | - | - | - |
| 1777536639 | 11.11° C | 74% | 1016.8 hPa | 0 mm | - | - | - |
| 1777536026 | 11.11° C | 74% | 1016.9 hPa | 0 mm | - | - | - |
| 1777534270 | 11.11° C | 74% | 1017.2 hPa | 0 mm | - | - | - |
| 1777532474 | 11.67° C | 73% | 1017.6 hPa | 0 mm | - | - | - |
| 1777527639 | 12.22° C | 70% | 1018.6 hPa | 0 mm | - | - | - |
| 1777527027 | 12.22° C | 70% | 1018.9 hPa | 0 mm | - | - | - |
| 1777523494 | 12.78° C | 69% | 1019 hPa | 0 mm | - | - | - |
| 1777519862 | 13.33° C | 66% | 1019.6 hPa | 0 mm | - | - | - |
| 1777515638 | 15° C | 62% | 1019.7 hPa | 0 mm | - | - | - |
| 1777509026 | 17.22° C | 57% | 1019 hPa | 0 mm | - | - | - |
| 1777507862 | 17.22° C | 55% | 1018.7 hPa | 0 mm | - | - | - |
| 1777506639 | 17.22° C | 53% | 1018.4 hPa | 0 mm | - | - | - |
| 1777505475 | 17.78° C | 51% | 1018.2 hPa | 0 mm | - | - | - |
| 1777504863 | 17.78° C | 52% | 1018.1 hPa | 0 mm | - | - | - |
| 1777498250 | 24.44° C | 30% | 1017 hPa | 0 mm | - | - | - |
| 1777497638 | 25° C | 29% | 1017.1 hPa | 0 mm | - | - | - |
| 1777495902 | 25° C | 31% | 1017 hPa | 0 mm | - | - | - |
| 1777495250 | 25° C | 30% | 1017 hPa | 0 mm | - | - | - |
| 1777494026 | 25.56° C | 30% | 1016.8 hPa | 0 mm | - | - | - |
| 1777488639 | 27.22° C | 24% | 1016.9 hPa | 0 mm | - | - | - |
| 1777485638 | 29.44° C | 21% | 1017 hPa | 0 mm | - | - | - |
| 1777484474 | 28.33° C | 22% | 1017.1 hPa | 0 mm | - | - | - |
| 1777483251 | 29.44° C | 20% | 1017.1 hPa | 0 mm | - | - | - |
* Rain latest hour (hover to see other rain measurements)
** Current wind speed in m/s (hover to see current wind gust speed)